sensor_id;sensor_type;location;lat;lon;timestamp;P1;durP1;ratioP1;P2;durP2;ratioP2
14169;SDS011;63889;50.596;8.690;2023-06-19T00:01:28;13.05;;;9.10;;
14169;SDS011;63889;50.596;8.690;2023-06-19T00:03:54;14.57;;;9.25;;
14169;SDS011;63889;50.596;8.690;2023-06-19T00:06:19;15.65;;;9.35;;
14169;SDS011;63889;50.596;8.690;2023-06-19T00:08:45;14.38;;;9.70;;
14169;SDS011;63889;50.596;8.690;2023-06-19T00:11:11;16.40;;;10.05;;
14169;SDS011;63889;50.596;8.690;2023-06-19T00:13:36;10.43;;;8.63;;
14169;SDS011;63889;50.596;8.690;2023-06-19T00:16:02;16.02;;;9.80;;
14169;SDS011;63889;50.596;8.690;2023-06-19T00:18:28;11.95;;;9.43;;
14169;SDS011;63889;50.596;8.690;2023-06-19T00:20:54;13.55;;;8.82;;
14169;SDS011;63889;50.596;8.690;2023-06-19T00:23:21;14.57;;;9.05;;
14169;SDS011;63889;50.596;8.690;2023-06-19T00:25:47;12.07;;;8.85;;
14169;SDS011;63889;50.596;8.690;2023-06-19T00:28:13;12.25;;;9.68;;
14169;SDS011;63889;50.596;8.690;2023-06-19T00:30:40;14.95;;;9.38;;
14169;SDS011;63889;50.596;8.690;2023-06-19T00:33:06;11.63;;;8.77;;
14169;SDS011;63889;50.596;8.690;2023-06-19T00:35:32;10.25;;;8.95;;
14169;SDS011;63889;50.596;8.690;2023-06-19T00:37:58;11.98;;;8.82;;
14169;SDS011;63889;50.596;8.690;2023-06-19T00:40:27;10.73;;;8.50;;
14169;SDS011;63889;50.596;8.690;2023-06-19T00:42:55;9.75;;;8.15;;
14169;SDS011;63889;50.596;8.690;2023-06-19T00:45:21;11.68;;;8.25;;
14169;SDS011;63889;50.596;8.690;2023-06-19T00:47:48;11.80;;;8.20;;
14169;SDS011;63889;50.596;8.690;2023-06-19T00:50:14;10.85;;;7.78;;
14169;SDS011;63889;50.596;8.690;2023-06-19T00:52:40;10.32;;;7.20;;
14169;SDS011;63889;50.596;8.690;2023-06-19T00:55:05;11.77;;;7.60;;
14169;SDS011;63889;50.596;8.690;2023-06-19T00:57:32;11.77;;;8.00;;
14169;SDS011;63889;50.596;8.690;2023-06-19T00:59:58;12.82;;;7.43;;
14169;SDS011;63889;50.596;8.690;2023-06-19T01:02:24;10.40;;;7.18;;
14169;SDS011;63889;50.596;8.690;2023-06-19T01:04:51;8.82;;;7.30;;
14169;SDS011;63889;50.596;8.690;2023-06-19T01:07:17;8.88;;;7.72;;
14169;SDS011;63889;50.596;8.690;2023-06-19T01:09:53;9.45;;;7.60;;
14169;SDS011;63889;50.596;8.690;2023-06-19T01:12:27;11.05;;;8.68;;
14169;SDS011;63889;50.596;8.690;2023-06-19T01:15:00;9.52;;;8.52;;
14169;SDS011;63889;50.596;8.690;2023-06-19T01:17:28;10.60;;;8.38;;
14169;SDS011;63889;50.596;8.690;2023-06-19T01:19:55;10.18;;;8.75;;
14169;SDS011;63889;50.596;8.690;2023-06-19T01:22:23;12.35;;;8.93;;
14169;SDS011;63889;50.596;8.690;2023-06-19T01:24:49;13.00;;;9.18;;
14169;SDS011;63889;50.596;8.690;2023-06-19T01:27:15;11.63;;;8.13;;
14169;SDS011;63889;50.596;8.690;2023-06-19T01:29:40;13.85;;;9.40;;
14169;SDS011;63889;50.596;8.690;2023-06-19T01:32:08;12.27;;;8.85;;
14169;SDS011;63889;50.596;8.690;2023-06-19T01:34:38;9.85;;;8.07;;
14169;SDS011;63889;50.596;8.690;2023-06-19T01:37:04;13.70;;;8.10;;
14169;SDS011;63889;50.596;8.690;2023-06-19T01:39:31;12.95;;;8.68;;
14169;SDS011;63889;50.596;8.690;2023-06-19T01:41:58;12.57;;;7.95;;
14169;SDS011;63889;50.596;8.690;2023-06-19T01:44:24;10.38;;;8.23;;
14169;SDS011;63889;50.596;8.690;2023-06-19T01:46:51;12.27;;;8.15;;
14169;SDS011;63889;50.596;8.690;2023-06-19T01:49:16;10.07;;;7.60;;
14169;SDS011;63889;50.596;8.690;2023-06-19T01:51:43;11.40;;;8.02;;
14169;SDS011;63889;50.596;8.690;2023-06-19T01:54:08;9.40;;;8.07;;
14169;SDS011;63889;50.596;8.690;2023-06-19T01:56:34;12.77;;;9.15;;
14169;SDS011;63889;50.596;8.690;2023-06-19T01:59:00;12.27;;;8.68;;
14169;SDS011;63889;50.596;8.690;2023-06-19T02:01:26;12.93;;;8.65;;
14169;SDS011;63889;50.596;8.690;2023-06-19T02:03:51;9.98;;;8.20;;
14169;SDS011;63889;50.596;8.690;2023-06-19T02:06:17;11.95;;;8.75;;
14169;SDS011;63889;50.596;8.690;2023-06-19T02:08:43;13.55;;;8.52;;
14169;SDS011;63889;50.596;8.690;2023-06-19T02:11:08;10.60;;;8.40;;
14169;SDS011;63889;50.596;8.690;2023-06-19T02:13:34;10.20;;;8.10;;
14169;SDS011;63889;50.596;8.690;2023-06-19T02:15:59;16.27;;;9.35;;
14169;SDS011;63889;50.596;8.690;2023-06-19T02:18:25;12.35;;;8.63;;
14169;SDS011;63889;50.596;8.690;2023-06-19T02:20:50;13.27;;;8.75;;
14169;SDS011;63889;50.596;8.690;2023-06-19T02:23:16;12.80;;;7.80;;
14169;SDS011;63889;50.596;8.690;2023-06-19T02:25:41;10.38;;;8.07;;
14169;SDS011;63889;50.596;8.690;2023-06-19T02:28:07;11.40;;;8.52;;
14169;SDS011;63889;50.596;8.690;2023-06-19T02:30:33;9.75;;;8.05;;
14169;SDS011;63889;50.596;8.690;2023-06-19T02:32:58;10.93;;;8.60;;
14169;SDS011;63889;50.596;8.690;2023-06-19T02:35:24;12.57;;;8.45;;
14169;SDS011;63889;50.596;8.690;2023-06-19T02:37:49;10.27;;;8.05;;
14169;SDS011;63889;50.596;8.690;2023-06-19T02:40:15;9.70;;;8.38;;
14169;SDS011;63889;50.596;8.690;2023-06-19T02:42:40;10.88;;;8.07;;
14169;SDS011;63889;50.596;8.690;2023-06-19T02:45:06;11.75;;;8.50;;
14169;SDS011;63889;50.596;8.690;2023-06-19T02:47:32;12.48;;;9.00;;
14169;SDS011;63889;50.596;8.690;2023-06-19T02:49:58;13.10;;;9.63;;
14169;SDS011;63889;50.596;8.690;2023-06-19T02:52:25;11.50;;;8.98;;
14169;SDS011;63889;50.596;8.690;2023-06-19T02:54:50;9.80;;;8.63;;
14169;SDS011;63889;50.596;8.690;2023-06-19T02:57:16;10.85;;;8.93;;
14169;SDS011;63889;50.596;8.690;2023-06-19T02:59:42;10.45;;;8.45;;
14169;SDS011;63889;50.596;8.690;2023-06-19T03:02:07;10.05;;;8.48;;
14169;SDS011;63889;50.596;8.690;2023-06-19T03:04:33;12.05;;;8.82;;
14169;SDS011;63889;50.596;8.690;2023-06-19T03:06:58;12.77;;;8.70;;
14169;SDS011;63889;50.596;8.690;2023-06-19T03:09:24;16.83;;;8.85;;
14169;SDS011;63889;50.596;8.690;2023-06-19T03:11:49;11.07;;;9.10;;
14169;SDS011;63889;50.596;8.690;2023-06-19T03:14:15;12.20;;;9.07;;
14169;SDS011;63889;50.596;8.690;2023-06-19T03:16:40;12.80;;;9.57;;
14169;SDS011;63889;50.596;8.690;2023-06-19T03:19:06;11.90;;;8.55;;
14169;SDS011;63889;50.596;8.690;2023-06-19T03:21:31;11.38;;;9.05;;
14169;SDS011;63889;50.596;8.690;2023-06-19T03:23:57;11.60;;;9.07;;
14169;SDS011;63889;50.596;8.690;2023-06-19T03:26:23;12.07;;;9.52;;
14169;SDS011;63889;50.596;8.690;2023-06-19T03:28:50;13.30;;;8.48;;
14169;SDS011;63889;50.596;8.690;2023-06-19T03:31:15;14.40;;;9.52;;
14169;SDS011;63889;50.596;8.690;2023-06-19T03:33:41;11.50;;;8.73;;
14169;SDS011;63889;50.596;8.690;2023-06-19T03:36:06;11.90;;;8.55;;
14169;SDS011;63889;50.596;8.690;2023-06-19T03:38:32;12.93;;;9.45;;
14169;SDS011;63889;50.596;8.690;2023-06-19T03:40:58;13.70;;;9.43;;
14169;SDS011;63889;50.596;8.690;2023-06-19T03:43:23;12.20;;;9.35;;
14169;SDS011;63889;50.596;8.690;2023-06-19T03:45:49;13.63;;;9.93;;
14169;SDS011;63889;50.596;8.690;2023-06-19T03:48:15;13.80;;;9.30;;
14169;SDS011;63889;50.596;8.690;2023-06-19T03:50:41;14.35;;;9.02;;
14169;SDS011;63889;50.596;8.690;2023-06-19T03:53:07;14.35;;;9.07;;
14169;SDS011;63889;50.596;8.690;2023-06-19T03:55:32;13.27;;;9.13;;
14169;SDS011;63889;50.596;8.690;2023-06-19T03:57:58;11.85;;;8.98;;
14169;SDS011;63889;50.596;8.690;2023-06-19T04:00:23;13.43;;;9.05;;
14169;SDS011;63889;50.596;8.690;2023-06-19T04:02:49;15.30;;;9.68;;
14169;SDS011;63889;50.596;8.690;2023-06-19T04:05:15;11.82;;;8.95;;
14169;SDS011;63889;50.596;8.690;2023-06-19T04:07:40;16.67;;;9.70;;
14169;SDS011;63889;50.596;8.690;2023-06-19T04:10:06;14.18;;;9.23;;
14169;SDS011;63889;50.596;8.690;2023-06-19T04:12:32;13.45;;;9.48;;
14169;SDS011;63889;50.596;8.690;2023-06-19T04:14:58;13.73;;;9.48;;
14169;SDS011;63889;50.596;8.690;2023-06-19T04:17:24;15.30;;;9.60;;
14169;SDS011;63889;50.596;8.690;2023-06-19T04:19:49;12.65;;;8.50;;
14169;SDS011;63889;50.596;8.690;2023-06-19T04:22:15;15.18;;;9.23;;
14169;SDS011;63889;50.596;8.690;2023-06-19T04:24:40;15.07;;;9.15;;
14169;SDS011;63889;50.596;8.690;2023-06-19T04:27:06;15.75;;;9.50;;
14169;SDS011;63889;50.596;8.690;2023-06-19T04:29:33;15.13;;;9.52;;
14169;SDS011;63889;50.596;8.690;2023-06-19T04:31:59;14.70;;;9.35;;
14169;SDS011;63889;50.596;8.690;2023-06-19T04:34:25;18.45;;;8.90;;
14169;SDS011;63889;50.596;8.690;2023-06-19T04:36:51;14.80;;;9.38;;
14169;SDS011;63889;50.596;8.690;2023-06-19T04:39:16;14.00;;;8.95;;
14169;SDS011;63889;50.596;8.690;2023-06-19T04:41:43;12.88;;;8.77;;
14169;SDS011;63889;50.596;8.690;2023-06-19T04:44:08;14.05;;;9.45;;
14169;SDS011;63889;50.596;8.690;2023-06-19T04:46:37;13.48;;;8.65;;
14169;SDS011;63889;50.596;8.690;2023-06-19T04:49:03;13.90;;;9.50;;
14169;SDS011;63889;50.596;8.690;2023-06-19T04:51:30;11.45;;;8.38;;
14169;SDS011;63889;50.596;8.690;2023-06-19T04:53:57;15.48;;;9.35;;
14169;SDS011;63889;50.596;8.690;2023-06-19T04:56:26;12.48;;;8.23;;
14169;SDS011;63889;50.596;8.690;2023-06-19T04:58:51;13.20;;;7.97;;
14169;SDS011;63889;50.596;8.690;2023-06-19T05:01:21;12.48;;;8.30;;
14169;SDS011;63889;50.596;8.690;2023-06-19T05:03:52;10.60;;;7.63;;
14169;SDS011;63889;50.596;8.690;2023-06-19T05:06:19;12.25;;;7.97;;
14169;SDS011;63889;50.596;8.690;2023-06-19T05:08:45;11.52;;;7.70;;
14169;SDS011;63889;50.596;8.690;2023-06-19T05:11:11;12.25;;;8.32;;
14169;SDS011;63889;50.596;8.690;2023-06-19T05:13:36;20.17;;;8.45;;
14169;SDS011;63889;50.596;8.690;2023-06-19T05:16:02;10.73;;;8.57;;
14169;SDS011;63889;50.596;8.690;2023-06-19T05:18:27;14.10;;;9.13;;
14169;SDS011;63889;50.596;8.690;2023-06-19T05:20:53;12.40;;;8.90;;
14169;SDS011;63889;50.596;8.690;2023-06-19T05:23:18;15.75;;;8.77;;
14169;SDS011;63889;50.596;8.690;2023-06-19T05:25:44;13.82;;;8.63;;
14169;SDS011;63889;50.596;8.690;2023-06-19T05:28:10;12.80;;;8.60;;
14169;SDS011;63889;50.596;8.690;2023-06-19T05:30:36;12.63;;;8.90;;
14169;SDS011;63889;50.596;8.690;2023-06-19T05:33:01;14.30;;;8.85;;
14169;SDS011;63889;50.596;8.690;2023-06-19T05:35:27;16.10;;;9.52;;
14169;SDS011;63889;50.596;8.690;2023-06-19T05:37:52;19.10;;;9.18;;
14169;SDS011;63889;50.596;8.690;2023-06-19T05:40:18;11.57;;;8.32;;
14169;SDS011;63889;50.596;8.690;2023-06-19T05:42:44;13.15;;;9.10;;
14169;SDS011;63889;50.596;8.690;2023-06-19T05:45:10;9.82;;;7.22;;
14169;SDS011;63889;50.596;8.690;2023-06-19T05:47:36;9.20;;;6.93;;
14169;SDS011;63889;50.596;8.690;2023-06-19T05:50:01;12.13;;;6.80;;
14169;SDS011;63889;50.596;8.690;2023-06-19T05:52:27;10.60;;;6.50;;
14169;SDS011;63889;50.596;8.690;2023-06-19T05:54:53;11.63;;;6.28;;
14169;SDS011;63889;50.596;8.690;2023-06-19T05:57:19;8.80;;;6.13;;
14169;SDS011;63889;50.596;8.690;2023-06-19T05:59:47;8.77;;;5.53;;
14169;SDS011;63889;50.596;8.690;2023-06-19T06:02:13;7.68;;;5.00;;
14169;SDS011;63889;50.596;8.690;2023-06-19T06:04:39;9.07;;;5.35;;
14169;SDS011;63889;50.596;8.690;2023-06-19T06:07:04;9.18;;;5.90;;
14169;SDS011;63889;50.596;8.690;2023-06-19T06:09:30;6.82;;;4.88;;
14169;SDS011;63889;50.596;8.690;2023-06-19T06:11:57;7.88;;;5.85;;
14169;SDS011;63889;50.596;8.690;2023-06-19T06:14:23;12.73;;;5.45;;
14169;SDS011;63889;50.596;8.690;2023-06-19T06:16:49;9.55;;;5.20;;
14169;SDS011;63889;50.596;8.690;2023-06-19T06:19:14;6.75;;;5.20;;
14169;SDS011;63889;50.596;8.690;2023-06-19T06:21:40;7.65;;;5.22;;
14169;SDS011;63889;50.596;8.690;2023-06-19T06:24:06;7.75;;;5.35;;
14169;SDS011;63889;50.596;8.690;2023-06-19T06:26:32;7.55;;;5.55;;
14169;SDS011;63889;50.596;8.690;2023-06-19T06:28:58;7.28;;;5.53;;
14169;SDS011;63889;50.596;8.690;2023-06-19T06:31:24;14.38;;;5.00;;
14169;SDS011;63889;50.596;8.690;2023-06-19T06:33:49;5.60;;;4.60;;
14169;SDS011;63889;50.596;8.690;2023-06-19T06:36:15;10.30;;;5.03;;
14169;SDS011;63889;50.596;8.690;2023-06-19T06:38:41;9.23;;;4.95;;
14169;SDS011;63889;50.596;8.690;2023-06-19T06:41:06;6.05;;;4.47;;
14169;SDS011;63889;50.596;8.690;2023-06-19T06:43:33;6.00;;;4.50;;
14169;SDS011;63889;50.596;8.690;2023-06-19T06:45:58;6.45;;;4.68;;
14169;SDS011;63889;50.596;8.690;2023-06-19T06:48:24;5.82;;;4.70;;
14169;SDS011;63889;50.596;8.690;2023-06-19T06:50:50;6.35;;;4.63;;
14169;SDS011;63889;50.596;8.690;2023-06-19T06:53:16;5.55;;;4.22;;
14169;SDS011;63889;50.596;8.690;2023-06-19T06:55:41;9.02;;;4.20;;
14169;SDS011;63889;50.596;8.690;2023-06-19T06:58:07;5.43;;;4.43;;
14169;SDS011;63889;50.596;8.690;2023-06-19T07:00:32;7.80;;;4.43;;
14169;SDS011;63889;50.596;8.690;2023-06-19T07:02:58;7.20;;;4.35;;
14169;SDS011;63889;50.596;8.690;2023-06-19T07:05:24;7.75;;;4.32;;
14169;SDS011;63889;50.596;8.690;2023-06-19T07:07:49;6.53;;;4.25;;
14169;SDS011;63889;50.596;8.690;2023-06-19T07:10:15;5.78;;;4.13;;
14169;SDS011;63889;50.596;8.690;2023-06-19T07:12:44;4.78;;;4.07;;
14169;SDS011;63889;50.596;8.690;2023-06-19T07:15:10;5.25;;;4.70;;
14169;SDS011;63889;50.596;8.690;2023-06-19T07:17:36;6.95;;;4.07;;
14169;SDS011;63889;50.596;8.690;2023-06-19T07:20:02;5.55;;;4.07;;
14169;SDS011;63889;50.596;8.690;2023-06-19T07:22:29;5.82;;;4.38;;
14169;SDS011;63889;50.596;8.690;2023-06-19T07:24:54;6.88;;;4.28;;
14169;SDS011;63889;50.596;8.690;2023-06-19T07:27:20;5.18;;;3.60;;
14169;SDS011;63889;50.596;8.690;2023-06-19T07:29:45;6.20;;;4.13;;
14169;SDS011;63889;50.596;8.690;2023-06-19T07:32:11;4.93;;;3.90;;
14169;SDS011;63889;50.596;8.690;2023-06-19T07:34:37;5.97;;;3.70;;
14169;SDS011;63889;50.596;8.690;2023-06-19T07:37:02;7.40;;;3.85;;
14169;SDS011;63889;50.596;8.690;2023-06-19T07:39:28;5.18;;;3.92;;
14169;SDS011;63889;50.596;8.690;2023-06-19T07:41:54;9.18;;;4.35;;
14169;SDS011;63889;50.596;8.690;2023-06-19T07:44:19;7.22;;;3.78;;
14169;SDS011;63889;50.596;8.690;2023-06-19T07:46:46;5.03;;;3.58;;
14169;SDS011;63889;50.596;8.690;2023-06-19T07:49:11;5.93;;;3.90;;
14169;SDS011;63889;50.596;8.690;2023-06-19T07:51:37;7.22;;;3.63;;
14169;SDS011;63889;50.596;8.690;2023-06-19T07:54:02;8.25;;;3.70;;
14169;SDS011;63889;50.596;8.690;2023-06-19T07:56:28;7.78;;;3.90;;
14169;SDS011;63889;50.596;8.690;2023-06-19T07:58:54;4.40;;;3.78;;
14169;SDS011;63889;50.596;8.690;2023-06-19T08:01:19;5.80;;;4.05;;
14169;SDS011;63889;50.596;8.690;2023-06-19T08:03:45;5.45;;;4.00;;
14169;SDS011;63889;50.596;8.690;2023-06-19T08:06:11;7.43;;;3.35;;
14169;SDS011;63889;50.596;8.690;2023-06-19T08:08:36;7.03;;;4.20;;
14169;SDS011;63889;50.596;8.690;2023-06-19T08:11:02;6.35;;;3.80;;
14169;SDS011;63889;50.596;8.690;2023-06-19T08:13:28;5.88;;;3.63;;
14169;SDS011;63889;50.596;8.690;2023-06-19T08:15:53;4.63;;;3.80;;
14169;SDS011;63889;50.596;8.690;2023-06-19T08:18:19;10.88;;;4.43;;
14169;SDS011;63889;50.596;8.690;2023-06-19T08:20:44;4.90;;;4.03;;
14169;SDS011;63889;50.596;8.690;2023-06-19T08:23:10;5.03;;;4.22;;
14169;SDS011;63889;50.596;8.690;2023-06-19T08:25:35;6.63;;;4.03;;
14169;SDS011;63889;50.596;8.690;2023-06-19T08:28:01;9.52;;;4.07;;
14169;SDS011;63889;50.596;8.690;2023-06-19T08:30:27;6.68;;;4.05;;
14169;SDS011;63889;50.596;8.690;2023-06-19T08:32:52;6.43;;;4.25;;
14169;SDS011;63889;50.596;8.690;2023-06-19T08:35:18;6.75;;;4.18;;
14169;SDS011;63889;50.596;8.690;2023-06-19T08:37:44;5.03;;;3.63;;
14169;SDS011;63889;50.596;8.690;2023-06-19T08:40:09;5.75;;;3.80;;
14169;SDS011;63889;50.596;8.690;2023-06-19T08:42:37;4.07;;;3.50;;
14169;SDS011;63889;50.596;8.690;2023-06-19T08:45:04;3.55;;;3.22;;
14169;SDS011;63889;50.596;8.690;2023-06-19T08:47:31;5.63;;;3.45;;
14169;SDS011;63889;50.596;8.690;2023-06-19T08:49:58;3.92;;;3.30;;
14169;SDS011;63889;50.596;8.690;2023-06-19T08:52:24;7.28;;;4.03;;
14169;SDS011;63889;50.596;8.690;2023-06-19T08:54:50;7.28;;;3.55;;
14169;SDS011;63889;50.596;8.690;2023-06-19T08:57:15;5.70;;;3.58;;
14169;SDS011;63889;50.596;8.690;2023-06-19T08:59:47;4.90;;;4.00;;
14169;SDS011;63889;50.596;8.690;2023-06-19T09:02:16;6.03;;;3.75;;
14169;SDS011;63889;50.596;8.690;2023-06-19T09:04:42;5.05;;;3.28;;
14169;SDS011;63889;50.596;8.690;2023-06-19T09:07:08;4.82;;;3.00;;
14169;SDS011;63889;50.596;8.690;2023-06-19T09:09:34;5.95;;;3.53;;
14169;SDS011;63889;50.596;8.690;2023-06-19T09:12:01;4.20;;;3.38;;
14169;SDS011;63889;50.596;8.690;2023-06-19T09:16:57;4.72;;;3.55;;
14169;SDS011;63889;50.596;8.690;2023-06-19T09:19:22;11.13;;;5.10;;
14169;SDS011;63889;50.596;8.690;2023-06-19T09:21:48;6.55;;;3.83;;
14169;SDS011;63889;50.596;8.690;2023-06-19T09:24:14;7.40;;;3.70;;
14169;SDS011;63889;50.596;8.690;2023-06-19T09:26:40;7.25;;;4.70;;
14169;SDS011;63889;50.596;8.690;2023-06-19T09:29:12;5.43;;;3.83;;
14169;SDS011;63889;50.596;8.690;2023-06-19T09:31:39;6.18;;;4.05;;
14169;SDS011;63889;50.596;8.690;2023-06-19T09:34:06;5.57;;;4.13;;
14169;SDS011;63889;50.596;8.690;2023-06-19T09:36:32;5.15;;;4.05;;
14169;SDS011;63889;50.596;8.690;2023-06-19T09:38:59;10.65;;;4.43;;
14169;SDS011;63889;50.596;8.690;2023-06-19T09:41:25;7.75;;;3.90;;
14169;SDS011;63889;50.596;8.690;2023-06-19T09:43:51;5.70;;;3.13;;
14169;SDS011;63889;50.596;8.690;2023-06-19T09:46:23;5.07;;;3.67;;
14169;SDS011;63889;50.596;8.690;2023-06-19T09:48:54;4.78;;;4.13;;
14169;SDS011;63889;50.596;8.690;2023-06-19T09:51:26;8.18;;;4.07;;
14169;SDS011;63889;50.596;8.690;2023-06-19T09:53:56;7.07;;;4.00;;
14169;SDS011;63889;50.596;8.690;2023-06-19T09:56:23;4.05;;;3.65;;
14169;SDS011;63889;50.596;8.690;2023-06-19T09:58:51;5.82;;;3.65;;
14169;SDS011;63889;50.596;8.690;2023-06-19T10:01:19;4.88;;;3.65;;
14169;SDS011;63889;50.596;8.690;2023-06-19T10:03:45;4.43;;;3.13;;
14169;SDS011;63889;50.596;8.690;2023-06-19T10:06:15;6.07;;;3.35;;
14169;SDS011;63889;50.596;8.690;2023-06-19T10:08:41;4.75;;;3.72;;
14169;SDS011;63889;50.596;8.690;2023-06-19T10:11:09;5.05;;;4.00;;
14169;SDS011;63889;50.596;8.690;2023-06-19T10:13:36;5.72;;;3.67;;
14169;SDS011;63889;50.596;8.690;2023-06-19T10:16:05;3.90;;;3.50;;
14169;SDS011;63889;50.596;8.690;2023-06-19T10:18:51;3.70;;;3.40;;
14169;SDS011;63889;50.596;8.690;2023-06-19T10:21:17;5.78;;;3.90;;
14169;SDS011;63889;50.596;8.690;2023-06-19T10:23:51;4.90;;;3.35;;
14169;SDS011;63889;50.596;8.690;2023-06-19T10:26:19;5.20;;;3.80;;
14169;SDS011;63889;50.596;8.690;2023-06-19T10:28:46;5.47;;;4.18;;
14169;SDS011;63889;50.596;8.690;2023-06-19T10:31:15;4.93;;;3.95;;
14169;SDS011;63889;50.596;8.690;2023-06-19T10:33:40;4.88;;;3.53;;
14169;SDS011;63889;50.596;8.690;2023-06-19T10:36:15;5.38;;;3.90;;
14169;SDS011;63889;50.596;8.690;2023-06-19T10:38:50;5.72;;;4.35;;
14169;SDS011;63889;50.596;8.690;2023-06-19T10:43:42;5.40;;;3.70;;
14169;SDS011;63889;50.596;8.690;2023-06-19T10:46:22;6.50;;;3.45;;
14169;SDS011;63889;50.596;8.690;2023-06-19T10:48:49;7.10;;;4.00;;
14169;SDS011;63889;50.596;8.690;2023-06-19T10:51:19;6.45;;;3.83;;
14169;SDS011;63889;50.596;8.690;2023-06-19T10:53:45;4.75;;;3.70;;
14169;SDS011;63889;50.596;8.690;2023-06-19T10:56:10;4.45;;;3.42;;
14169;SDS011;63889;50.596;8.690;2023-06-19T10:58:36;4.10;;;3.25;;
14169;SDS011;63889;50.596;8.690;2023-06-19T11:01:01;5.40;;;3.38;;
14169;SDS011;63889;50.596;8.690;2023-06-19T11:03:28;5.70;;;3.95;;
14169;SDS011;63889;50.596;8.690;2023-06-19T11:05:53;3.60;;;3.28;;
14169;SDS011;63889;50.596;8.690;2023-06-19T11:08:22;6.07;;;3.67;;
14169;SDS011;63889;50.596;8.690;2023-06-19T11:10:49;11.00;;;3.97;;
14169;SDS011;63889;50.596;8.690;2023-06-19T11:13:16;4.50;;;3.33;;
14169;SDS011;63889;50.596;8.690;2023-06-19T11:15:43;5.05;;;3.40;;
14169;SDS011;63889;50.596;8.690;2023-06-19T11:18:09;4.65;;;3.47;;
14169;SDS011;63889;50.596;8.690;2023-06-19T11:20:48;4.32;;;3.50;;
14169;SDS011;63889;50.596;8.690;2023-06-19T11:23:15;4.68;;;3.95;;
14169;SDS011;63889;50.596;8.690;2023-06-19T11:25:51;5.78;;;4.05;;
14169;SDS011;63889;50.596;8.690;2023-06-19T11:28:17;5.25;;;3.67;;
14169;SDS011;63889;50.596;8.690;2023-06-19T11:30:47;5.43;;;3.72;;
14169;SDS011;63889;50.596;8.690;2023-06-19T11:33:23;4.95;;;3.70;;
14169;SDS011;63889;50.596;8.690;2023-06-19T11:35:52;3.35;;;3.05;;
14169;SDS011;63889;50.596;8.690;2023-06-19T11:38:20;5.05;;;3.38;;
14169;SDS011;63889;50.596;8.690;2023-06-19T11:40:46;4.32;;;3.63;;
14169;SDS011;63889;50.596;8.690;2023-06-19T11:43:23;5.68;;;3.30;;
14169;SDS011;63889;50.596;8.690;2023-06-19T11:45:52;4.93;;;3.20;;
14169;SDS011;63889;50.596;8.690;2023-06-19T11:48:25;3.88;;;3.58;;
14169;SDS011;63889;50.596;8.690;2023-06-19T11:50:51;3.25;;;2.95;;
14169;SDS011;63889;50.596;8.690;2023-06-19T11:53:18;4.20;;;3.63;;
14169;SDS011;63889;50.596;8.690;2023-06-19T11:55:45;4.70;;;3.22;;
14169;SDS011;63889;50.596;8.690;2023-06-19T11:58:10;5.82;;;3.72;;
14169;SDS011;63889;50.596;8.690;2023-06-19T12:00:36;5.97;;;4.05;;
14169;SDS011;63889;50.596;8.690;2023-06-19T12:03:02;5.28;;;3.17;;
14169;SDS011;63889;50.596;8.690;2023-06-19T12:05:28;5.40;;;3.45;;
14169;SDS011;63889;50.596;8.690;2023-06-19T12:07:54;5.30;;;3.92;;
14169;SDS011;63889;50.596;8.690;2023-06-19T12:10:19;3.70;;;3.25;;
14169;SDS011;63889;50.596;8.690;2023-06-19T12:12:45;4.10;;;3.70;;
14169;SDS011;63889;50.596;8.690;2023-06-19T12:15:11;6.60;;;3.88;;
14169;SDS011;63889;50.596;8.690;2023-06-19T12:17:36;4.25;;;3.25;;
14169;SDS011;63889;50.596;8.690;2023-06-19T12:20:02;3.95;;;3.38;;
14169;SDS011;63889;50.596;8.690;2023-06-19T12:22:35;4.10;;;3.45;;
14169;SDS011;63889;50.596;8.690;2023-06-19T12:25:00;5.20;;;3.90;;
14169;SDS011;63889;50.596;8.690;2023-06-19T12:27:26;6.43;;;3.53;;
14169;SDS011;63889;50.596;8.690;2023-06-19T12:29:52;4.80;;;3.83;;
14169;SDS011;63889;50.596;8.690;2023-06-19T12:32:17;7.45;;;3.42;;
14169;SDS011;63889;50.596;8.690;2023-06-19T12:34:43;8.13;;;3.50;;
14169;SDS011;63889;50.596;8.690;2023-06-19T12:37:14;4.55;;;3.60;;
14169;SDS011;63889;50.596;8.690;2023-06-19T12:39:42;4.03;;;3.50;;
14169;SDS011;63889;50.596;8.690;2023-06-19T12:42:08;5.40;;;3.38;;
14169;SDS011;63889;50.596;8.690;2023-06-19T12:44:36;5.72;;;4.07;;
14169;SDS011;63889;50.596;8.690;2023-06-19T12:47:03;4.15;;;3.50;;
14169;SDS011;63889;50.596;8.690;2023-06-19T12:49:30;7.15;;;4.07;;
14169;SDS011;63889;50.596;8.690;2023-06-19T12:51:56;3.50;;;3.10;;
14169;SDS011;63889;50.596;8.690;2023-06-19T12:54:22;7.35;;;3.45;;
14169;SDS011;63889;50.596;8.690;2023-06-19T12:56:48;4.00;;;3.60;;
14169;SDS011;63889;50.596;8.690;2023-06-19T12:59:13;7.07;;;3.75;;
14169;SDS011;63889;50.596;8.690;2023-06-19T13:01:40;3.78;;;3.38;;
14169;SDS011;63889;50.596;8.690;2023-06-19T13:04:06;7.78;;;3.90;;
14169;SDS011;63889;50.596;8.690;2023-06-19T13:06:32;4.90;;;3.22;;
14169;SDS011;63889;50.596;8.690;2023-06-19T13:08:57;3.33;;;3.03;;
14169;SDS011;63889;50.596;8.690;2023-06-19T13:11:23;5.10;;;3.17;;
14169;SDS011;63889;50.596;8.690;2023-06-19T13:13:49;4.18;;;3.75;;
14169;SDS011;63889;50.596;8.690;2023-06-19T13:16:14;4.18;;;3.42;;
14169;SDS011;63889;50.596;8.690;2023-06-19T13:18:44;4.68;;;3.17;;
14169;SDS011;63889;50.596;8.690;2023-06-19T13:21:13;6.65;;;3.15;;
14169;SDS011;63889;50.596;8.690;2023-06-19T13:23:40;4.00;;;3.17;;
14169;SDS011;63889;50.596;8.690;2023-06-19T13:26:05;6.22;;;3.60;;
14169;SDS011;63889;50.596;8.690;2023-06-19T13:28:32;4.72;;;3.40;;
14169;SDS011;63889;50.596;8.690;2023-06-19T13:30:57;5.93;;;3.22;;
14169;SDS011;63889;50.596;8.690;2023-06-19T13:33:23;5.25;;;3.38;;
14169;SDS011;63889;50.596;8.690;2023-06-19T13:35:49;4.70;;;3.40;;
14169;SDS011;63889;50.596;8.690;2023-06-19T13:38:14;3.25;;;2.95;;
14169;SDS011;63889;50.596;8.690;2023-06-19T13:40:40;3.80;;;3.40;;
14169;SDS011;63889;50.596;8.690;2023-06-19T13:43:06;3.97;;;3.40;;
14169;SDS011;63889;50.596;8.690;2023-06-19T13:45:32;9.65;;;7.07;;
14169;SDS011;63889;50.596;8.690;2023-06-19T13:47:59;9.75;;;6.68;;
14169;SDS011;63889;50.596;8.690;2023-06-19T13:50:24;6.35;;;4.30;;
14169;SDS011;63889;50.596;8.690;2023-06-19T13:52:50;7.72;;;4.60;;
14169;SDS011;63889;50.596;8.690;2023-06-19T13:55:15;7.30;;;4.53;;
14169;SDS011;63889;50.596;8.690;2023-06-19T13:57:41;5.40;;;3.65;;
14169;SDS011;63889;50.596;8.690;2023-06-19T14:00:08;6.07;;;3.72;;
14169;SDS011;63889;50.596;8.690;2023-06-19T14:02:35;8.35;;;4.15;;
14169;SDS011;63889;50.596;8.690;2023-06-19T14:05:05;4.45;;;3.75;;
14169;SDS011;63889;50.596;8.690;2023-06-19T14:07:32;5.37;;;3.50;;
14169;SDS011;63889;50.596;8.690;2023-06-19T14:09:58;6.00;;;4.05;;
14169;SDS011;63889;50.596;8.690;2023-06-19T14:12:24;4.32;;;3.50;;
14169;SDS011;63889;50.596;8.690;2023-06-19T14:14:50;4.75;;;3.50;;
14169;SDS011;63889;50.596;8.690;2023-06-19T14:17:16;4.68;;;3.08;;
14169;SDS011;63889;50.596;8.690;2023-06-19T14:19:42;6.38;;;3.30;;
14169;SDS011;63889;50.596;8.690;2023-06-19T14:22:07;3.70;;;3.35;;
14169;SDS011;63889;50.596;8.690;2023-06-19T14:24:33;5.43;;;3.17;;
14169;SDS011;63889;50.596;8.690;2023-06-19T14:26:58;3.25;;;2.78;;
14169;SDS011;63889;50.596;8.690;2023-06-19T14:29:24;4.47;;;3.03;;
14169;SDS011;63889;50.596;8.690;2023-06-19T14:31:53;4.70;;;3.50;;
14169;SDS011;63889;50.596;8.690;2023-06-19T14:34:19;4.88;;;3.15;;
14169;SDS011;63889;50.596;8.690;2023-06-19T14:36:45;3.40;;;3.10;;
14169;SDS011;63889;50.596;8.690;2023-06-19T14:39:11;5.30;;;3.80;;
14169;SDS011;63889;50.596;8.690;2023-06-19T14:41:37;6.18;;;3.13;;
14169;SDS011;63889;50.596;8.690;2023-06-19T14:44:04;5.40;;;3.30;;